createdAt,value
2022-08-19T00:02:59.184Z,23.27
2022-08-19T00:07:01.458Z,25.70
2022-08-19T00:11:03.567Z,26.38
2022-08-19T00:15:07.807Z,23.40
2022-08-19T00:19:14.570Z,21.70
2022-08-19T00:23:17.050Z,19.90
2022-08-19T00:27:26.179Z,21.35
2022-08-19T00:31:29.091Z,21.23
2022-08-19T00:35:30.862Z,21.40
2022-08-19T00:39:32.585Z,23.25
2022-08-19T00:43:34.838Z,20.27
2022-08-19T00:48:06.077Z,23.73
2022-08-19T00:52:15.993Z,21.80
2022-08-19T00:56:18.405Z,24.85
2022-08-19T01:00:32.960Z,23.10
2022-08-19T01:04:43.883Z,25.23
2022-08-19T01:08:57.915Z,27.60
2022-08-19T01:13:18.522Z,24.05
2022-08-19T01:21:54.140Z,25.02
2022-08-19T01:26:02.437Z,22.67
2022-08-19T01:30:34.020Z,23.05
2022-08-19T01:34:39.948Z,22.73
2022-08-19T01:38:44.414Z,20.52
2022-08-19T01:42:46.330Z,20.70
2022-08-19T01:46:49.431Z,21.27
2022-08-19T01:50:51.108Z,23.35
2022-08-19T01:54:53.068Z,20.47
2022-08-19T01:59:02.930Z,20.67
2022-08-19T02:03:04.579Z,22.60
2022-08-19T02:07:08.824Z,22.35
2022-08-19T02:11:27.580Z,22.25
2022-08-19T02:15:29.338Z,21.08
2022-08-19T02:19:33.541Z,23.88
2022-08-19T02:23:35.729Z,23.92
2022-08-19T02:27:52.488Z,21.50
2022-08-19T02:31:54.614Z,23.98
2022-08-19T02:35:56.396Z,21.98
2022-08-19T02:40:04.383Z,22.50
2022-08-19T02:44:29.068Z,22.00
2022-08-19T02:48:55.719Z,24.40
2022-08-19T02:52:58.477Z,24.02
2022-08-19T03:01:03.311Z,27.37
2022-08-19T03:05:10.569Z,23.27
2022-08-19T03:09:12.636Z,24.02
2022-08-19T03:13:18.893Z,31.47
2022-08-19T03:17:21.525Z,23.42
2022-08-19T03:21:26.157Z,25.60
2022-08-19T03:25:27.861Z,23.75
2022-08-19T03:29:32.681Z,26.52
2022-08-19T03:33:35.334Z,25.00
2022-08-19T03:37:37.810Z,23.98
2022-08-19T03:41:48.153Z,24.38
2022-08-19T03:45:50.816Z,24.90
2022-08-19T03:49:52.496Z,23.27
2022-08-19T03:53:56.176Z,22.88
2022-08-19T03:57:59.370Z,24.33
2022-08-19T04:02:10.392Z,24.05
2022-08-19T04:06:17.198Z,23.42
2022-08-19T04:10:18.864Z,25.42
2022-08-19T04:14:23.677Z,23.77
2022-08-19T04:18:25.339Z,25.63
2022-08-19T04:22:26.971Z,25.02
2022-08-19T04:26:33.979Z,24.15
2022-08-19T04:30:48.598Z,25.08
2022-08-19T04:35:03.209Z,26.45
2022-08-19T04:39:17.479Z,23.80
2022-08-19T04:43:19.201Z,23.48
2022-08-19T04:47:47.403Z,27.77
2022-08-19T04:51:44.923Z,28.17
2022-08-19T04:55:46.631Z,26.17
2022-08-19T04:59:49.447Z,26.83
2022-08-19T05:03:51.592Z,25.20
2022-08-19T05:07:53.350Z,28.58
2022-08-19T05:11:55.055Z,25.95
2022-08-19T05:15:58.678Z,26.13
2022-08-19T05:20:20.228Z,25.58
2022-08-19T05:24:23.714Z,23.35
2022-08-19T05:28:25.431Z,23.92
2022-08-19T05:32:27.208Z,26.45
2022-08-19T05:36:34.118Z,25.95
2022-08-19T05:40:39.491Z,26.63
2022-08-19T05:44:45.183Z,28.05
2022-08-19T05:48:47.042Z,26.15
2022-08-19T05:52:50.141Z,25.48
2022-08-19T05:56:54.099Z,26.08
2022-08-19T06:00:55.893Z,28.42
2022-08-19T06:04:57.729Z,23.92
2022-08-19T06:08:59.975Z,27.35
2022-08-19T06:13:01.610Z,27.48
2022-08-19T06:17:07.139Z,28.38
2022-08-19T06:21:09.381Z,26.25
2022-08-19T06:25:14.102Z,26.45
2022-08-19T06:29:23.782Z,22.48
2022-08-19T06:33:31.635Z,22.75
2022-08-19T06:37:43.747Z,21.88
2022-08-19T06:41:52.439Z,20.02
2022-08-19T06:45:56.574Z,20.02
2022-08-19T06:50:08.598Z,21.70
2022-08-19T06:58:59.023Z,17.80
2022-08-19T07:03:04.523Z,16.88
2022-08-19T07:07:21.298Z,21.15
2022-08-19T07:11:23.435Z,16.15
2022-08-19T07:19:31.110Z,15.63
2022-08-19T07:23:33.506Z,15.77
2022-08-19T07:27:35.478Z,15.52
2022-08-19T07:31:38.060Z,16.33
2022-08-19T07:35:40.421Z,12.18
2022-08-19T07:39:42.255Z,13.05
2022-08-19T07:43:44.613Z,15.27
2022-08-19T07:47:58.621Z,14.80
2022-08-19T07:52:09.042Z,15.02
2022-08-19T07:56:11.281Z,14.10
2022-08-19T08:00:21.685Z,15.55
2022-08-19T08:05:02.075Z,16.38
2022-08-19T08:09:12.253Z,13.30
2022-08-19T08:13:14.251Z,11.45
2022-08-19T08:21:47.931Z,9.48
2022-08-19T08:25:50.308Z,11.77
2022-08-19T08:29:52.017Z,8.57
2022-08-19T08:33:57.183Z,11.63
2022-08-19T08:38:00.194Z,11.13
2022-08-19T08:42:28.642Z,11.05
2022-08-19T08:47:02.559Z,9.30
2022-08-19T08:51:10.164Z,6.43
2022-08-19T08:55:16.278Z,10.80
2022-08-19T08:59:24.053Z,8.00
2022-08-19T09:03:31.671Z,8.48
2022-08-19T09:07:57.950Z,6.63
2022-08-19T09:12:29.512Z,7.05
2022-08-19T09:16:31.245Z,8.32
2022-08-19T09:20:33.384Z,9.63
2022-08-19T09:24:36.812Z,8.82
2022-08-19T09:28:38.423Z,7.38
2022-08-19T09:32:43.344Z,8.82
2022-08-19T09:36:44.958Z,6.78
2022-08-19T09:40:46.670Z,7.80
2022-08-19T09:44:53.146Z,9.95
2022-08-19T09:48:55.519Z,8.07
2022-08-19T09:52:58.074Z,7.35
2022-08-19T09:57:04.618Z,10.45
2022-08-19T10:01:10.597Z,10.20
2022-08-19T10:05:31.107Z,10.98
2022-08-19T10:09:34.419Z,9.45
2022-08-19T10:13:42.392Z,9.45
2022-08-19T10:17:54.959Z,10.68
2022-08-19T10:22:00.306Z,16.58
2022-08-19T10:26:02.449Z,8.32
2022-08-19T10:30:04.863Z,9.77
2022-08-19T10:34:17.551Z,9.82
2022-08-19T10:38:31.690Z,15.98
2022-08-19T10:42:36.136Z,8.10
2022-08-19T10:46:45.145Z,8.98
2022-08-19T10:51:22.647Z,8.23
2022-08-19T10:55:43.877Z,9.13
2022-08-19T10:59:45.601Z,8.30
2022-08-19T11:03:47.181Z,9.20
2022-08-19T11:07:52.406Z,8.60
2022-08-19T11:11:55.002Z,8.35
2022-08-19T11:16:01.795Z,9.02
2022-08-19T11:20:07.746Z,11.38
2022-08-19T11:24:12.890Z,8.85
2022-08-19T11:28:14.616Z,7.97
2022-08-19T11:32:16.894Z,10.30
2022-08-19T11:36:20.614Z,11.10
2022-08-19T11:40:22.237Z,11.57
2022-08-19T11:44:23.932Z,9.52
2022-08-19T11:48:26.596Z,9.60
2022-08-19T11:52:28.403Z,11.18
2022-08-19T11:56:30.114Z,8.85
2022-08-19T12:00:31.726Z,9.05
2022-08-19T12:04:33.319Z,8.98
2022-08-19T12:08:35.384Z,10.48
2022-08-19T12:12:41.442Z,10.55
2022-08-19T12:16:49.102Z,12.38
2022-08-19T12:20:57.980Z,11.57
2022-08-19T12:24:59.553Z,13.07
2022-08-19T12:29:01.242Z,13.98
2022-08-19T12:33:03.016Z,11.93
2022-08-19T12:41:10.556Z,11.57
2022-08-19T12:45:14.477Z,11.75
2022-08-19T12:49:51.934Z,10.25
2022-08-19T12:53:39.145Z,9.63
2022-08-19T12:57:41.761Z,8.25
2022-08-19T13:01:44.761Z,8.55
2022-08-19T13:05:46.376Z,7.25
2022-08-19T13:13:52.047Z,7.00
2022-08-19T13:17:54.889Z,7.40
2022-08-19T13:22:00.035Z,8.35
2022-08-19T13:26:05.929Z,7.72
2022-08-19T13:30:29.394Z,8.00
2022-08-19T13:34:36.607Z,6.32
2022-08-19T13:38:39.018Z,6.15
2022-08-19T13:42:41.487Z,6.80
2022-08-19T13:46:46.106Z,8.57
2022-08-19T13:50:50.283Z,9.85
2022-08-19T13:54:51.879Z,7.18
2022-08-19T13:58:54.781Z,6.00
2022-08-19T14:03:01.048Z,6.03
2022-08-19T14:07:02.621Z,5.93
2022-08-19T14:11:06.681Z,5.38
2022-08-19T14:15:11.093Z,5.47
2022-08-19T14:19:12.715Z,7.25
2022-08-19T14:23:14.723Z,5.15
2022-08-19T14:27:16.347Z,5.13
2022-08-19T14:31:20.224Z,5.35
2022-08-19T14:35:23.002Z,5.13
2022-08-19T14:39:24.738Z,6.28
2022-08-19T14:43:26.358Z,6.32
2022-08-19T14:47:28.251Z,5.00
2022-08-19T14:51:30.196Z,6.88
2022-08-19T14:55:32.802Z,9.45
2022-08-19T14:59:36.204Z,6.10
2022-08-19T15:03:38.217Z,6.93
2022-08-19T15:07:40.846Z,7.50
2022-08-19T15:11:43.703Z,6.38
2022-08-19T15:15:46.431Z,7.55
2022-08-19T15:19:48.085Z,7.20
2022-08-19T15:23:51.157Z,7.05
2022-08-19T15:27:53.922Z,6.97
2022-08-19T15:31:58.928Z,6.85
2022-08-19T15:36:00.529Z,9.65
2022-08-19T15:40:02.398Z,7.75
2022-08-19T15:48:10.663Z,5.60
2022-08-19T15:52:12.279Z,6.88
2022-08-19T15:56:15.513Z,6.18
2022-08-19T16:00:35.957Z,7.05
2022-08-19T16:04:55.958Z,7.53
2022-08-19T16:09:02.983Z,6.03
2022-08-19T16:13:06.135Z,5.50
2022-08-19T16:17:11.603Z,6.75
2022-08-19T16:21:17.354Z,7.32
2022-08-19T16:25:18.928Z,6.80
2022-08-19T16:29:34.563Z,6.32
2022-08-19T16:33:41.169Z,5.93
2022-08-19T16:37:42.778Z,6.72
2022-08-19T16:41:46.083Z,7.38
2022-08-19T16:45:54.849Z,9.70
2022-08-19T16:49:56.563Z,7.25
2022-08-19T16:53:58.163Z,9.18
2022-08-19T16:58:04.477Z,7.70
2022-08-19T17:02:06.056Z,8.10
2022-08-19T17:06:16.159Z,7.32
2022-08-19T17:10:22.403Z,7.18
2022-08-19T17:14:24.008Z,8.55
2022-08-19T17:18:26.422Z,7.20
2022-08-19T17:22:35.795Z,8.25
2022-08-19T17:26:37.688Z,7.40
2022-08-19T17:30:39.322Z,7.97
2022-08-19T17:34:41.298Z,9.93
2022-08-19T17:38:42.928Z,7.05
2022-08-19T17:42:45.454Z,8.57
2022-08-19T17:46:47.160Z,11.07
2022-08-19T17:50:48.751Z,9.27
2022-08-19T17:54:50.372Z,9.67
2022-08-19T17:58:59.571Z,8.15
2022-08-19T18:03:04.924Z,7.43
2022-08-19T18:07:09.229Z,7.32
2022-08-19T18:11:11.675Z,7.65
2022-08-19T18:15:13.810Z,7.88
2022-08-19T18:19:15.443Z,7.97
2022-08-19T18:23:45.468Z,6.47
2022-08-19T18:27:39.025Z,7.83
2022-08-19T18:31:40.691Z,10.65
2022-08-19T18:35:48.684Z,11.43
2022-08-19T18:40:09.117Z,6.68
2022-08-19T18:44:29.272Z,8.60
2022-08-19T18:48:49.400Z,6.15
2022-08-19T18:52:50.983Z,6.45
2022-08-19T18:56:55.766Z,6.03
2022-08-19T19:00:58.739Z,6.40
2022-08-19T19:05:03.855Z,8.77
2022-08-19T19:09:15.479Z,6.93
2022-08-19T19:13:17.087Z,6.30
2022-08-19T19:17:22.972Z,6.93
2022-08-19T19:21:26.148Z,8.68
2022-08-19T19:25:27.769Z,10.15
2022-08-19T19:29:52.281Z,7.85
2022-08-19T19:33:55.847Z,8.93
2022-08-19T19:37:58.138Z,12.23
2022-08-19T19:42:00.290Z,10.88
2022-08-19T19:46:01.936Z,10.75
2022-08-19T19:50:14.841Z,9.75
2022-08-19T19:54:22.968Z,9.20
2022-08-19T19:58:30.492Z,10.25
2022-08-19T20:02:32.147Z,10.50
2022-08-19T20:06:34.092Z,9.70
2022-08-19T20:10:41.129Z,8.57
2022-08-19T20:14:42.708Z,9.07
2022-08-19T20:18:44.451Z,11.43
2022-08-19T20:22:47.568Z,11.07
2022-08-19T20:26:53.435Z,13.10
2022-08-19T20:30:55.858Z,10.82
2022-08-19T20:35:01.229Z,10.57
2022-08-19T20:39:04.985Z,10.57
2022-08-19T20:43:12.968Z,8.38
2022-08-19T20:47:14.795Z,8.77
2022-08-19T20:51:17.042Z,8.53
2022-08-19T20:55:18.724Z,9.50
2022-08-19T20:59:21.969Z,9.75
2022-08-19T21:07:38.844Z,8.73
2022-08-19T21:11:41.537Z,16.30
2022-08-19T21:15:44.500Z,12.57
2022-08-19T21:19:47.027Z,10.02
2022-08-19T21:23:49.736Z,10.93
2022-08-19T21:27:55.800Z,9.95
2022-08-19T21:32:02.133Z,12.98
2022-08-19T21:36:05.271Z,12.63
2022-08-19T21:40:08.161Z,11.27
2022-08-19T21:44:10.150Z,9.40
2022-08-19T21:48:14.739Z,13.00
2022-08-19T21:52:24.972Z,12.18
2022-08-19T21:56:26.673Z,9.85
2022-08-19T22:00:32.225Z,13.57
2022-08-19T22:04:34.651Z,11.85
2022-08-19T22:08:37.023Z,11.10
2022-08-19T22:12:47.283Z,11.15
2022-08-19T22:16:59.386Z,10.75
2022-08-19T22:21:02.437Z,11.70
2022-08-19T22:25:09.557Z,11.90
2022-08-19T22:29:11.562Z,9.32
2022-08-19T22:33:21.294Z,13.30
2022-08-19T22:37:23.474Z,10.50
2022-08-19T22:41:25.562Z,11.48
2022-08-19T22:45:28.208Z,12.52
2022-08-19T22:49:32.416Z,10.77
2022-08-19T22:53:43.731Z,9.68
2022-08-19T22:57:45.938Z,12.93
2022-08-19T23:01:47.714Z,9.45
2022-08-19T23:06:00.230Z,8.40
2022-08-19T23:10:08.902Z,9.23
2022-08-19T23:14:12.675Z,11.23
2022-08-19T23:18:14.991Z,12.85
2022-08-19T23:22:24.859Z,13.23
2022-08-19T23:31:09.075Z,9.15
2022-08-19T23:35:13.927Z,7.60
2022-08-19T23:39:28.030Z,10.57
2022-08-19T23:43:37.005Z,10.52
2022-08-19T23:48:00.224Z,8.45
2022-08-19T23:52:18.701Z,8.15
2022-08-19T23:56:28.970Z,8.73
